Rogers Spring, Nevada Weather observations

Data are for 10 minute period ending at time listed.
 Day   Time   Solar   Ave.   Ave.  Ave.  Vector  Max.   Baro.   Total    
  of    of     Rad.   Air    Rel.  Wind   Wind   Wind  Press.  Precip.   
Year   Day            Temp.  Hum.  Speed  Dir.   Gust                    
2015   (PST)  Kw/m2    F      %     mph   deg.    mph    mb.     in.     
-------------------------------------------------------------------------
  25   18:50   0.00   64.1    26    3.4     1     5.6   938.1    0.00 
  25   19:00   0.00   63.4    26    3.7     9     6.1   938.1    0.00 
  25   19:10   0.00   62.1    28    3.5    24     5.2   938.2    0.00 
  25   19:20   0.00   62.5    28    3.1     4     4.6   938.2    0.00 
  25   19:30   0.00   61.1    29    2.3   351     3.7   938.2    0.00 
  25   19:40   0.00   59.3    30    2.3    35     3.8   938.1    0.00 
  25   19:50   0.00   59.5    30    2.3     8     4.3   937.9    0.00 
  25   20:00   0.00   59.3    30    2.4   354     4.2   937.9    0.00 
  25   20:10   0.00   59.2    30    2.0    10     3.8   938.0    0.00 
  25   20:20   0.00   58.9    31    2.7    14     4.3   938.0    0.00 
  25   20:30   0.00   60.2    30    2.3     1     3.9   938.1    0.00 
  25   20:40   0.00   59.5    30    2.9   353     5.4   938.2    0.00 
  25   20:50   0.00   57.9    32    3.0   352     5.1   938.1    0.00 
  25   21:00   0.00   56.7    33    2.7     2     5.0   938.1    0.00 
  25   21:10   0.00   58.8    31    3.9   344     6.1   938.1    0.00 
  25   21:20   0.00   56.8    33    3.3   342     4.5   938.1    0.00 
  25   21:30   0.00   58.7    32    5.1   359     8.0   938.1    0.00 
  25   21:40   0.00   59.9    30    5.4     4     8.0   938.2    0.00 
  25   21:50   0.00   59.5    30    3.8    54     6.4   938.4    0.00 
  25   22:00   0.00   60.7    29    3.4    57     7.2   938.6    0.00 
  25   22:10   0.00   60.1    30    1.9     5     3.4   938.6    0.00 
  25   22:20   0.00   57.4    32    0.8    96     3.1   938.7    0.00 
  25   22:30   0.00   56.6    33    1.7    57     4.1   938.8    0.00 
  25   22:40   0.00   55.4    34    2.8    96     6.4   938.9    0.00 
  25   22:50   0.00   57.5    32    2.9   110     5.3   938.9    0.00 
  25   23:00   0.00   56.6    33    1.7   135     3.9   939.0    0.00 
  25   23:10   0.00   52.7    38    1.7   282     3.3   939.0    0.00 
  25   23:20   0.00   47.8    45    1.8   307     3.1   939.0    0.00 
  25   23:30   0.00   46.9    47    1.7    78     4.2   938.8    0.00 
  25   23:40   0.00   46.7    48    1.7    71     2.3   938.7    0.00 
  25   23:50   0.00   46.1    47    0.5    91     2.7   938.6    0.00 
  26    0:00   0.00   44.6    51    0.5    78     1.5   938.7    0.00 
  26    0:10   0.00   44.5    50    0.3    74     1.7   938.6    0.00 
  26    0:20   0.00   47.5    47    1.5   142     2.9   938.6    0.00 
  26    0:30   0.00   47.2    45    2.1   153     3.1   938.7    0.00 
  26    0:40   0.00   48.7    44    2.7   158     3.7   938.7    0.00 
  26    0:50   0.00   50.3    41    2.2   165     3.5   938.7    0.00 
  26    1:00   0.00   44.5    50    1.2   149     2.3   938.7    0.00 
  26    1:10   0.00   43.5    52    1.7   298     4.0   938.8    0.00 
  26    1:20   0.00   42.8    54    1.1    63     3.7   938.9    0.00 
  26    1:30   0.00   43.0    53    1.5    81     4.7   938.9    0.00 
  26    1:40   0.00   43.0    53    1.0    98     2.6   938.9    0.00 
  26    1:50   0.00   41.0    57    1.6    88     3.9   938.9    0.00 
  26    2:00   0.00   39.8    59    1.2    51     2.8   938.8    0.00 
  26    2:10   0.00   39.6    60    1.5    57     2.3   938.8    0.00 
  26    2:20   0.00   39.3    62    1.9    66     3.9   938.9    0.00 
  26    2:30   0.00   40.6    58    2.4    60     6.5   938.9    0.00 
  26    2:40   0.00   42.1    54    0.9   140     2.9   939.0    0.00 
  26    2:50   0.00   43.4    53    3.4   172     5.4   939.0    0.00 
  26    3:00   0.00   45.0    51    2.4   194     4.9   938.9    0.00 
  26    3:10   0.00   43.3    53    2.0   272     3.6   938.8    0.00 
  26    3:20   0.00   41.1    56    1.2   330     3.5   938.8    0.00 
  26    3:30   0.00   39.9    60    1.7   337     6.1   938.6    0.00 
  26    3:40   0.00   42.0    56    1.3    20     4.7   938.6    0.00 
  26    3:50   0.00   41.5    57    1.4   331     4.5   938.6    0.00 
  26    4:00   0.00   40.5    58    2.0    95     3.8   938.6    0.00 
  26    4:10   0.00   40.7    58    2.7    64     4.2   938.5    0.00 
  26    4:20   0.00   38.9    60    1.8    96     2.9   938.6    0.00 
  26    4:30   0.00   38.3    63    1.6    50     2.6   938.6    0.00 
  26    4:40   0.00   37.8    63    2.2    82     2.9   938.6    0.00 
  26    4:50   0.00   38.5    60    1.9   122     2.7   938.6    0.00 
  26    5:00   0.00   38.4    61    1.3   132     2.2   938.6    0.00 
  26    5:10   0.00   36.9    65    0.5   186     2.8   938.5    0.00 
  26    5:20   0.00   34.2    67    1.2   304     3.1   938.5    0.00 
  26    5:30   0.00   33.7    70    0.8    34     2.5   938.5    0.00 
  26    5:40   0.00   36.4    65    1.7    94     4.4   938.7    0.00 
  26    5:50   0.00   36.0    65    0.9   161     2.7   938.7    0.00 
  26    6:00   0.00   37.1    64    1.6   105     3.4   938.8    0.00 
  26    6:10   0.00   35.7    68    1.6    37     3.8   938.8    0.00 
  26    6:20   0.00   36.8    65    2.2    84     3.7   938.9    0.00 
  26    6:30   0.00   39.5    60    3.0    84     4.5   938.9    0.00 
  26    6:40   0.00   40.1    58    2.3    83     3.4   939.0    0.00 
  26    6:50   0.00   38.7    63    2.0    76     3.1   939.0    0.00 
  26    7:00   0.00   36.9    65    1.0   145     2.4   939.0    0.00 
  26    7:10   0.01   36.0    69    0.2   346     1.9   939.2    0.00 
  26    7:20   0.02   37.1    67    1.5    97     3.9   939.3    0.00 
  26    7:30   0.04   40.6    61    3.2   158     5.5   939.4    0.00 
  26    7:40   0.09   45.1    53    3.0   166     4.5   939.2    0.00 
  26    7:50   0.13   47.8    48    2.3   208     3.8   939.2    0.00 
  26    8:00   0.09   47.6    48    1.6   250     3.0   939.3    0.00 
  26    8:10   0.07   46.3    51    1.2   263     2.4   939.3    0.00 
  26    8:20   0.09   45.1    52    1.2   308     2.5   939.2    0.00 
  26    8:30   0.12   45.3    52    1.5   357     3.3   939.0    0.00 
  26    8:40   0.16   46.7    49    0.4   283     1.4   939.0    0.00 
  26    8:50   0.25   49.2    46    0.1   318     1.2   939.0    0.00 
  26    9:00   0.31   52.7    41    0.5   208     2.0   939.1    0.00 
  26    9:10   0.40   55.9    36    1.0   183     2.8   939.0    0.00 
  26    9:20   0.33   57.4    34    2.1   183     3.7   938.9    0.00 
  26    9:30   0.43   59.5    32    2.1   170     6.0   939.0    0.00 
  26    9:40   0.35   60.2    30    2.7   181     4.7   939.1    0.00 
  26    9:50   0.44   61.4    29    1.9   260     4.1   939.2    0.00 
  26   10:00   0.49   62.2    28    2.4   318     5.3   939.2    0.00 
  26   10:10   0.44   63.2    27    3.7   334     5.5   939.1    0.00 
  26   10:20   0.40   63.7    26    3.1   344     6.4   939.1    0.00 
  26   10:30   0.58   65.8    24    2.7   304     5.5   939.2    0.00 
  26   10:40   0.57   67.2    23    2.1   268     4.9   939.3    0.00 
  26   10:50   0.57   69.1    21    3.2   273     6.1   939.2    0.00 
  26   11:00   0.37   68.7    21    2.2   286     6.4   939.1    0.00 
  26   11:10   0.65   69.5    21    2.9   302     7.5   938.9    0.00 
  26   11:20   0.64   70.9    20    1.5   358     4.3   938.7    0.00 
  26   11:30   0.39   70.8    20    1.6    39     5.1   938.6    0.00 
  26   11:40   0.63   71.9    19    2.3   172     5.6   938.5    0.00 
  26   11:50   0.53   71.9    19    3.7   151     8.0   938.4    0.00 
  26   12:00   0.50   73.0    18    2.1   141     5.8   938.1    0.00 
  26   12:10   0.77   72.5    19    2.9    51     6.3   937.9    0.00 
  26   12:20   0.63   72.9    18    3.6    78     7.4   937.6    0.00 
  26   12:30   0.41   72.6    18    3.9    81     6.9   937.5    0.00 
  26   12:40   0.30   71.3    19    3.4   153     7.1   937.4    0.00 
  26   12:50   0.61   73.3    18    4.5   172     9.1   937.3    0.00 
  26   13:00   0.65   74.0    18    4.8   165     9.1   937.1    0.00 
  26   13:10   0.58   74.8    17    4.9   173     9.1   936.8    0.00 
  26   13:20   0.42   74.0    17    4.8   173    10.4   936.7    0.00 
  26   13:30   0.20   72.4    18    3.1   171     6.9   936.6    0.00 
  26   13:40   0.30   72.6    18    4.0   169     7.1   936.5    0.00 
  26   13:50   0.33   72.6    18    3.4   153     6.0   936.5    0.00 
  26   14:00   0.18   71.8    18    4.2   180     7.7   936.5    0.00 
  26   14:10   0.17   71.3    19    3.9   173     7.6   936.5    0.00 
  26   14:20   0.24   71.8    19    3.9   167     6.7   936.4    0.00 
  26   14:30   0.24   72.2    19    4.1   182     8.7   936.5    0.00 
  26   14:40   0.26   72.5    18    4.8   175     8.5   936.5    0.00 
  26   14:50   0.22   72.7    18    5.7   158    12.1   936.7    0.00 
  26   15:00   0.15   71.6    18    5.6   180    11.1   936.6    0.00 
  26   15:10   0.13   70.6    19    5.9   181    10.3   936.5    0.00 
  26   15:20   0.11   70.1    20    5.5   174     9.1   936.6    0.00 
  26   15:30   0.10   69.5    20    7.4   183    18.3   936.6    0.00 
  26   15:40   0.12   66.5    23   12.4   175    20.7   937.0    0.00 
  26   15:50   0.12   65.6    24   11.9   175    19.2   937.1    0.00 
  26   16:00   0.07   65.2    25    9.6   177    17.7   937.0    0.00 
  26   16:10   0.05   64.7    25    9.4   176    16.4   937.2    0.00 
  26   16:20   0.03   64.3    26    8.5   171    14.7   937.4    0.00 
  26   16:30   0.03   63.6    27   10.7   171    18.7   937.5    0.00 
  26   16:40   0.02   62.3    30   11.7   175    21.8   937.7    0.00 
  26   16:50   0.01   61.3    34   12.0   178    22.3   937.8    0.00 
  26   17:00   0.01   60.6    36    9.7   173    17.7   937.9    0.00 
  26   17:10   0.00   60.2    37    8.9   175    15.1   937.9    0.00 
  26   17:20   0.00   59.8    39    9.5   181    18.8   937.9    0.00 
  26   17:30   0.00   58.7    46    7.4   186    14.5   937.7    0.00 
  26   17:40   0.00   56.9    56    5.6   173    10.0   937.9    0.00 
  26   17:50   0.00   55.9    62    5.8   216    10.5   937.9    0.00 
  26   18:00   0.00   55.1    66    4.9   197     9.3   937.8    0.00 
  26   18:10   0.00   54.9    66    1.9   225     4.6   937.7    0.00 
  26   18:20   0.00   54.4    67    1.8   214     4.3   937.7    0.00 
  26   18:30   0.00   54.6    66    1.3   262     2.5   937.5    0.00 
  26   18:40   0.00   54.5    65    2.0   283     4.0   937.1    0.00 

Return to Rogers Spring graphs page.


Western Regional Climate Center,wrcc@dri.edu